sensor_id;sensor_type;location;lat;lon;timestamp;pressure;altitude;pressure_sealevel;temperature;humidity
77626;BME280;66794;43.764;10.436;2023-04-15T00:02:17;100807.03;;;13.52;100.00
77626;BME280;66794;43.764;10.436;2023-04-15T00:04:46;100800.56;;;13.53;100.00
77626;BME280;66794;43.764;10.436;2023-04-15T00:07:11;100794.28;;;13.53;100.00
77626;BME280;66794;43.764;10.436;2023-04-15T00:09:37;100793.06;;;13.55;100.00
77626;BME280;66794;43.764;10.436;2023-04-15T00:12:03;100785.94;;;13.54;100.00
77626;BME280;66794;43.764;10.436;2023-04-15T00:14:28;100790.97;;;13.57;100.00
77626;BME280;66794;43.764;10.436;2023-04-15T00:16:54;100791.47;;;13.10;100.00
77626;BME280;66794;43.764;10.436;2023-04-15T00:19:21;100798.25;;;12.99;100.00
77626;BME280;66794;43.764;10.436;2023-04-15T00:21:46;100796.72;;;12.75;100.00
77626;BME280;66794;43.764;10.436;2023-04-15T00:24:12;100796.72;;;12.60;100.00
77626;BME280;66794;43.764;10.436;2023-04-15T00:26:37;100797.31;;;12.56;100.00
77626;BME280;66794;43.764;10.436;2023-04-15T00:29:03;100792.44;;;12.36;100.00
77626;BME280;66794;43.764;10.436;2023-04-15T00:31:28;100801.53;;;12.29;100.00
77626;BME280;66794;43.764;10.436;2023-04-15T00:33:54;100806.84;;;12.22;100.00
77626;BME280;66794;43.764;10.436;2023-04-15T00:36:20;100794.56;;;12.26;100.00
77626;BME280;66794;43.764;10.436;2023-04-15T00:38:45;100788.78;;;12.15;100.00
77626;BME280;66794;43.764;10.436;2023-04-15T00:41:10;100777.91;;;12.15;100.00
77626;BME280;66794;43.764;10.436;2023-04-15T00:43:36;100788.53;;;12.01;100.00
77626;BME280;66794;43.764;10.436;2023-04-15T00:46:03;100780.97;;;12.11;100.00
77626;BME280;66794;43.764;10.436;2023-04-15T00:48:29;100776.84;;;12.01;100.00
77626;BME280;66794;43.764;10.436;2023-04-15T00:50:54;100773.97;;;12.02;100.00
77626;BME280;66794;43.764;10.436;2023-04-15T00:53:20;100777.88;;;12.00;100.00
77626;BME280;66794;43.764;10.436;2023-04-15T00:55:45;100775.75;;;12.10;100.00
77626;BME280;66794;43.764;10.436;2023-04-15T00:58:11;100776.56;;;11.96;100.00
77626;BME280;66794;43.764;10.436;2023-04-15T01:00:36;100767.69;;;12.02;100.00
77626;BME280;66794;43.764;10.436;2023-04-15T01:03:01;100766.38;;;11.98;100.00
77626;BME280;66794;43.764;10.436;2023-04-15T01:05:27;100769.00;;;12.06;100.00
77626;BME280;66794;43.764;10.436;2023-04-15T01:07:52;100769.44;;;11.95;100.00
77626;BME280;66794;43.764;10.436;2023-04-15T01:10:19;100765.59;;;11.89;100.00
77626;BME280;66794;43.764;10.436;2023-04-15T01:12:44;100761.56;;;11.85;100.00
77626;BME280;66794;43.764;10.436;2023-04-15T01:15:09;100761.53;;;11.70;100.00
77626;BME280;66794;43.764;10.436;2023-04-15T01:17:35;100757.84;;;11.63;100.00
77626;BME280;66794;43.764;10.436;2023-04-15T01:20:00;100754.00;;;11.57;100.00
77626;BME280;66794;43.764;10.436;2023-04-15T01:22:26;100764.63;;;11.44;100.00
77626;BME280;66794;43.764;10.436;2023-04-15T01:25:01;100766.38;;;11.37;100.00
77626;BME280;66794;43.764;10.436;2023-04-15T01:27:30;100743.59;;;11.23;100.00
77626;BME280;66794;43.764;10.436;2023-04-15T01:29:56;100764.50;;;11.38;100.00
77626;BME280;66794;43.764;10.436;2023-04-15T01:32:21;100756.00;;;11.41;100.00
77626;BME280;66794;43.764;10.436;2023-04-15T01:34:46;100766.53;;;11.36;100.00
77626;BME280;66794;43.764;10.436;2023-04-15T01:37:12;100770.41;;;11.41;100.00
77626;BME280;66794;43.764;10.436;2023-04-15T01:39:37;100761.38;;;11.49;100.00
77626;BME280;66794;43.764;10.436;2023-04-15T01:42:03;100773.53;;;11.30;100.00
77626;BME280;66794;43.764;10.436;2023-04-15T01:44:28;100757.22;;;11.38;100.00
77626;BME280;66794;43.764;10.436;2023-04-15T01:46:54;100760.41;;;11.42;100.00
77626;BME280;66794;43.764;10.436;2023-04-15T01:49:19;100760.88;;;11.45;100.00
77626;BME280;66794;43.764;10.436;2023-04-15T01:51:44;100757.72;;;11.42;100.00
77626;BME280;66794;43.764;10.436;2023-04-15T01:54:09;100757.81;;;11.48;100.00
77626;BME280;66794;43.764;10.436;2023-04-15T01:56:35;100755.66;;;11.44;100.00
77626;BME280;66794;43.764;10.436;2023-04-15T01:59:00;100747.13;;;11.47;100.00
77626;BME280;66794;43.764;10.436;2023-04-15T02:01:25;100749.19;;;11.45;100.00
77626;BME280;66794;43.764;10.436;2023-04-15T02:03:51;100745.63;;;11.44;100.00
77626;BME280;66794;43.764;10.436;2023-04-15T02:06:16;100735.16;;;11.41;100.00
77626;BME280;66794;43.764;10.436;2023-04-15T02:08:42;100741.16;;;11.51;100.00
77626;BME280;66794;43.764;10.436;2023-04-15T02:11:07;100743.88;;;11.51;100.00
77626;BME280;66794;43.764;10.436;2023-04-15T02:13:33;100749.25;;;11.59;100.00
77626;BME280;66794;43.764;10.436;2023-04-15T02:15:58;100744.47;;;11.62;100.00
77626;BME280;66794;43.764;10.436;2023-04-15T02:18:23;100750.19;;;11.67;100.00
77626;BME280;66794;43.764;10.436;2023-04-15T02:20:50;100754.03;;;11.72;100.00
77626;BME280;66794;43.764;10.436;2023-04-15T02:23:16;100753.69;;;11.75;100.00
77626;BME280;66794;43.764;10.436;2023-04-15T02:25:41;100758.97;;;11.92;100.00
77626;BME280;66794;43.764;10.436;2023-04-15T02:28:06;100753.16;;;11.95;100.00
77626;BME280;66794;43.764;10.436;2023-04-15T02:30:32;100746.06;;;11.94;100.00
77626;BME280;66794;43.764;10.436;2023-04-15T02:32:59;100747.97;;;12.08;100.00
77626;BME280;66794;43.764;10.436;2023-04-15T02:35:24;100751.03;;;12.05;100.00
77626;BME280;66794;43.764;10.436;2023-04-15T02:37:50;100754.88;;;12.10;100.00
77626;BME280;66794;43.764;10.436;2023-04-15T02:40:15;100753.47;;;12.15;100.00
77626;BME280;66794;43.764;10.436;2023-04-15T02:42:41;100751.13;;;12.11;100.00
77626;BME280;66794;43.764;10.436;2023-04-15T02:45:08;100753.47;;;12.00;100.00
77626;BME280;66794;43.764;10.436;2023-04-15T02:47:34;100744.19;;;11.94;100.00
77626;BME280;66794;43.764;10.436;2023-04-15T02:49:59;100742.25;;;11.65;100.00
77626;BME280;66794;43.764;10.436;2023-04-15T02:52:26;100739.88;;;11.62;100.00
77626;BME280;66794;43.764;10.436;2023-04-15T02:54:51;100741.75;;;11.62;100.00
77626;BME280;66794;43.764;10.436;2023-04-15T02:57:17;100748.34;;;11.44;100.00
77626;BME280;66794;43.764;10.436;2023-04-15T02:59:43;100745.22;;;11.32;100.00
77626;BME280;66794;43.764;10.436;2023-04-15T03:02:08;100747.41;;;11.37;100.00
77626;BME280;66794;43.764;10.436;2023-04-15T03:04:33;100740.94;;;11.38;100.00
77626;BME280;66794;43.764;10.436;2023-04-15T03:06:59;100741.69;;;11.32;100.00
77626;BME280;66794;43.764;10.436;2023-04-15T03:09:25;100743.53;;;11.31;100.00
77626;BME280;66794;43.764;10.436;2023-04-15T03:11:50;100743.28;;;11.41;100.00
77626;BME280;66794;43.764;10.436;2023-04-15T03:14:17;100746.56;;;11.37;100.00
77626;BME280;66794;43.764;10.436;2023-04-15T03:16:42;100742.56;;;11.24;100.00
77626;BME280;66794;43.764;10.436;2023-04-15T03:19:08;100744.75;;;11.06;100.00
77626;BME280;66794;43.764;10.436;2023-04-15T03:21:33;100741.78;;;10.93;100.00
77626;BME280;66794;43.764;10.436;2023-04-15T03:23:58;100752.78;;;10.91;100.00
77626;BME280;66794;43.764;10.436;2023-04-15T03:26:27;100753.16;;;10.88;100.00
77626;BME280;66794;43.764;10.436;2023-04-15T03:28:53;100744.34;;;10.86;100.00
77626;BME280;66794;43.764;10.436;2023-04-15T03:31:18;100755.13;;;10.71;100.00
77626;BME280;66794;43.764;10.436;2023-04-15T03:33:43;100754.94;;;10.73;100.00
77626;BME280;66794;43.764;10.436;2023-04-15T03:36:09;100752.41;;;10.71;100.00
77626;BME280;66794;43.764;10.436;2023-04-15T03:38:34;100758.69;;;10.64;100.00
77626;BME280;66794;43.764;10.436;2023-04-15T03:40:59;100762.81;;;10.51;100.00
77626;BME280;66794;43.764;10.436;2023-04-15T03:43:25;100759.31;;;10.35;100.00
77626;BME280;66794;43.764;10.436;2023-04-15T03:45:50;100762.03;;;10.26;100.00
77626;BME280;66794;43.764;10.436;2023-04-15T03:48:15;100750.56;;;10.24;100.00
77626;BME280;66794;43.764;10.436;2023-04-15T03:50:41;100750.38;;;10.26;100.00
77626;BME280;66794;43.764;10.436;2023-04-15T03:53:07;100744.59;;;10.21;100.00
77626;BME280;66794;43.764;10.436;2023-04-15T03:55:32;100744.78;;;10.19;100.00
77626;BME280;66794;43.764;10.436;2023-04-15T03:57:57;100753.91;;;10.26;100.00
77626;BME280;66794;43.764;10.436;2023-04-15T04:00:22;100746.50;;;10.29;100.00
77626;BME280;66794;43.764;10.436;2023-04-15T04:02:48;100744.44;;;10.39;100.00
77626;BME280;66794;43.764;10.436;2023-04-15T04:05:13;100752.16;;;10.50;100.00
77626;BME280;66794;43.764;10.436;2023-04-15T04:07:38;100754.81;;;10.58;100.00
77626;BME280;66794;43.764;10.436;2023-04-15T04:10:04;100753.97;;;10.66;100.00
77626;BME280;66794;43.764;10.436;2023-04-15T04:12:29;100758.28;;;10.75;100.00
77626;BME280;66794;43.764;10.436;2023-04-15T04:14:54;100758.09;;;10.45;100.00
77626;BME280;66794;43.764;10.436;2023-04-15T04:17:20;100769.13;;;10.44;100.00
77626;BME280;66794;43.764;10.436;2023-04-15T04:19:45;100773.97;;;10.48;100.00
77626;BME280;66794;43.764;10.436;2023-04-15T04:22:11;100763.00;;;10.42;100.00
77626;BME280;66794;43.764;10.436;2023-04-15T04:24:36;100764.88;;;10.49;100.00
77626;BME280;66794;43.764;10.436;2023-04-15T04:27:01;100723.16;;;10.27;100.00
77626;BME280;66794;43.764;10.436;2023-04-15T04:29:27;100755.84;;;10.57;100.00
77626;BME280;66794;43.764;10.436;2023-04-15T04:31:52;100753.47;;;10.54;100.00
77626;BME280;66794;43.764;10.436;2023-04-15T04:34:17;100757.72;;;10.48;100.00
77626;BME280;66794;43.764;10.436;2023-04-15T04:36:42;100771.50;;;10.31;100.00
77626;BME280;66794;43.764;10.436;2023-04-15T04:39:08;100779.13;;;10.19;100.00
77626;BME280;66794;43.764;10.436;2023-04-15T04:41:33;100784.88;;;10.32;100.00
77626;BME280;66794;43.764;10.436;2023-04-15T04:43:59;100795.72;;;10.24;100.00
77626;BME280;66794;43.764;10.436;2023-04-15T04:46:24;100800.13;;;10.17;100.00
77626;BME280;66794;43.764;10.436;2023-04-15T04:48:49;100806.06;;;9.96;100.00
77626;BME280;66794;43.764;10.436;2023-04-15T04:51:15;100809.91;;;10.10;100.00
77626;BME280;66794;43.764;10.436;2023-04-15T04:53:40;100812.47;;;10.11;100.00
77626;BME280;66794;43.764;10.436;2023-04-15T04:56:07;100811.28;;;10.06;100.00
77626;BME280;66794;43.764;10.436;2023-04-15T04:58:32;100804.34;;;10.11;100.00
77626;BME280;66794;43.764;10.436;2023-04-15T05:00:57;100803.84;;;10.24;100.00
77626;BME280;66794;43.764;10.436;2023-04-15T05:03:22;100809.22;;;10.16;100.00
77626;BME280;66794;43.764;10.436;2023-04-15T05:05:48;100812.16;;;10.06;100.00
77626;BME280;66794;43.764;10.436;2023-04-15T05:08:13;100823.97;;;10.13;100.00
77626;BME280;66794;43.764;10.436;2023-04-15T05:10:39;100821.41;;;10.20;100.00
77626;BME280;66794;43.764;10.436;2023-04-15T05:13:04;100822.78;;;9.99;100.00
77626;BME280;66794;43.764;10.436;2023-04-15T05:15:30;100820.59;;;10.11;100.00
77626;BME280;66794;43.764;10.436;2023-04-15T05:17:55;100827.31;;;10.15;100.00
77626;BME280;66794;43.764;10.436;2023-04-15T05:20:20;100820.41;;;10.13;100.00
77626;BME280;66794;43.764;10.436;2023-04-15T05:22:46;100828.88;;;9.93;100.00
77626;BME280;66794;43.764;10.436;2023-04-15T05:25:11;100829.91;;;10.00;100.00
77626;BME280;66794;43.764;10.436;2023-04-15T05:27:36;100839.03;;;9.91;100.00
77626;BME280;66794;43.764;10.436;2023-04-15T05:30:02;100832.44;;;9.86;100.00
77626;BME280;66794;43.764;10.436;2023-04-15T05:32:27;100839.38;;;9.96;100.00
77626;BME280;66794;43.764;10.436;2023-04-15T05:34:53;100847.97;;;9.84;100.00
77626;BME280;66794;43.764;10.436;2023-04-15T05:37:18;100851.34;;;10.10;100.00
77626;BME280;66794;43.764;10.436;2023-04-15T05:39:46;100850.00;;;9.98;100.00
77626;BME280;66794;43.764;10.436;2023-04-15T05:42:12;100862.84;;;10.04;100.00
77626;BME280;66794;43.764;10.436;2023-04-15T05:44:37;100871.66;;;10.14;100.00
77626;BME280;66794;43.764;10.436;2023-04-15T05:47:03;100868.25;;;10.20;100.00
77626;BME280;66794;43.764;10.436;2023-04-15T05:49:28;100877.91;;;10.23;100.00
77626;BME280;66794;43.764;10.436;2023-04-15T05:51:54;100875.19;;;10.23;100.00
77626;BME280;66794;43.764;10.436;2023-04-15T05:54:20;100882.28;;;10.16;100.00
77626;BME280;66794;43.764;10.436;2023-04-15T05:56:46;100884.66;;;10.19;100.00
77626;BME280;66794;43.764;10.436;2023-04-15T05:59:11;100881.13;;;9.86;100.00
77626;BME280;66794;43.764;10.436;2023-04-15T06:01:37;100877.72;;;10.00;100.00
77626;BME280;66794;43.764;10.436;2023-04-15T06:04:02;100883.34;;;10.07;100.00
77626;BME280;66794;43.764;10.436;2023-04-15T06:06:27;100875.72;;;10.18;100.00
77626;BME280;66794;43.764;10.436;2023-04-15T06:08:53;100879.75;;;10.14;100.00
77626;BME280;66794;43.764;10.436;2023-04-15T06:11:20;100875.53;;;10.20;100.00
77626;BME280;66794;43.764;10.436;2023-04-15T06:13:46;100843.25;;;9.69;100.00
77626;BME280;66794;43.764;10.436;2023-04-15T06:16:11;100880.44;;;10.08;100.00
77626;BME280;66794;43.764;10.436;2023-04-15T06:18:37;100869.81;;;9.74;100.00
77626;BME280;66794;43.764;10.436;2023-04-15T06:21:03;100869.13;;;9.88;100.00
77626;BME280;66794;43.764;10.436;2023-04-15T06:23:28;100861.50;;;9.84;100.00
77626;BME280;66794;43.764;10.436;2023-04-15T06:25:53;100856.09;;;9.67;100.00
77626;BME280;66794;43.764;10.436;2023-04-15T06:28:19;100855.75;;;9.54;100.00
77626;BME280;66794;43.764;10.436;2023-04-15T06:30:44;100863.56;;;9.73;100.00
77626;BME280;66794;43.764;10.436;2023-04-15T06:33:09;100852.53;;;9.59;100.00
77626;BME280;66794;43.764;10.436;2023-04-15T06:35:35;100853.06;;;9.70;100.00
77626;BME280;66794;43.764;10.436;2023-04-15T06:38:00;100839.53;;;9.87;100.00
77626;BME280;66794;43.764;10.436;2023-04-15T06:40:25;100783.25;;;9.74;100.00
77626;BME280;66794;43.764;10.436;2023-04-15T06:42:50;100823.78;;;10.15;100.00
77626;BME280;66794;43.764;10.436;2023-04-15T06:45:16;100826.31;;;10.16;100.00
77626;BME280;66794;43.764;10.436;2023-04-15T06:47:41;100827.84;;;10.27;100.00
77626;BME280;66794;43.764;10.436;2023-04-15T06:50:07;100829.19;;;10.31;100.00
77626;BME280;66794;43.764;10.436;2023-04-15T06:52:33;100837.13;;;10.41;100.00
77626;BME280;66794;43.764;10.436;2023-04-15T06:54:58;100843.91;;;10.45;100.00
77626;BME280;66794;43.764;10.436;2023-04-15T06:57:24;100835.47;;;10.23;100.00
77626;BME280;66794;43.764;10.436;2023-04-15T06:59:49;100844.06;;;10.19;100.00
77626;BME280;66794;43.764;10.436;2023-04-15T07:02:16;100833.06;;;10.20;100.00
77626;BME280;66794;43.764;10.436;2023-04-15T07:04:42;100838.50;;;10.04;100.00
77626;BME280;66794;43.764;10.436;2023-04-15T07:07:07;100832.44;;;10.02;100.00
77626;BME280;66794;43.764;10.436;2023-04-15T07:09:33;100830.41;;;9.96;100.00
77626;BME280;66794;43.764;10.436;2023-04-15T07:11:58;100821.97;;;9.91;100.00
77626;BME280;66794;43.764;10.436;2023-04-15T07:14:24;100824.50;;;9.92;100.00
77626;BME280;66794;43.764;10.436;2023-04-15T07:16:49;100821.44;;;10.04;100.00
77626;BME280;66794;43.764;10.436;2023-04-15T07:19:15;100819.06;;;10.17;100.00
77626;BME280;66794;43.764;10.436;2023-04-15T07:21:40;100823.97;;;10.13;100.00
77626;BME280;66794;43.764;10.436;2023-04-15T07:24:06;100822.75;;;10.16;100.00
77626;BME280;66794;43.764;10.436;2023-04-15T07:26:31;100820.91;;;10.08;100.00
77626;BME280;66794;43.764;10.436;2023-04-15T07:28:57;100826.84;;;10.04;100.00
77626;BME280;66794;43.764;10.436;2023-04-15T07:31:22;100820.41;;;10.13;100.00
77626;BME280;66794;43.764;10.436;2023-04-15T07:33:47;100821.75;;;10.25;100.00
77626;BME280;66794;43.764;10.436;2023-04-15T07:36:12;100825.22;;;10.66;100.00
77626;BME280;66794;43.764;10.436;2023-04-15T07:38:38;100816.13;;;10.90;100.00
77626;BME280;66794;43.764;10.436;2023-04-15T07:41:03;100818.09;;;11.04;100.00
77626;BME280;66794;43.764;10.436;2023-04-15T07:43:29;100817.09;;;11.28;100.00
77626;BME280;66794;43.764;10.436;2023-04-15T07:45:54;100816.34;;;11.43;100.00
77626;BME280;66794;43.764;10.436;2023-04-15T07:48:19;100807.25;;;11.73;100.00
77626;BME280;66794;43.764;10.436;2023-04-15T07:50:45;100817.34;;;11.88;100.00
77626;BME280;66794;43.764;10.436;2023-04-15T07:53:10;100822.88;;;11.71;100.00
77626;BME280;66794;43.764;10.436;2023-04-15T07:55:35;100828.41;;;11.78;100.00
77626;BME280;66794;43.764;10.436;2023-04-15T07:58:01;100818.09;;;11.58;100.00
77626;BME280;66794;43.764;10.436;2023-04-15T08:00:26;100816.38;;;11.80;100.00
77626;BME280;66794;43.764;10.436;2023-04-15T08:02:52;100817.75;;;11.76;100.00
77626;BME280;66794;43.764;10.436;2023-04-15T08:05:18;100820.28;;;11.78;100.00
77626;BME280;66794;43.764;10.436;2023-04-15T08:07:43;100816.03;;;11.83;100.00
77626;BME280;66794;43.764;10.436;2023-04-15T08:10:09;100806.91;;;11.76;100.00
77626;BME280;66794;43.764;10.436;2023-04-15T08:12:35;100809.72;;;12.06;100.00
77626;BME280;66794;43.764;10.436;2023-04-15T08:15:01;100815.75;;;12.31;100.00
77626;BME280;66794;43.764;10.436;2023-04-15T08:17:26;100811.72;;;12.27;100.00
77626;BME280;66794;43.764;10.436;2023-04-15T08:19:52;100809.47;;;12.30;100.00
77626;BME280;66794;43.764;10.436;2023-04-15T08:22:18;100818.81;;;12.13;100.00
77626;BME280;66794;43.764;10.436;2023-04-15T08:24:43;100766.63;;;11.88;100.00
77626;BME280;66794;43.764;10.436;2023-04-15T08:27:08;100805.44;;;12.26;100.00
77626;BME280;66794;43.764;10.436;2023-04-15T08:29:34;100799.47;;;12.46;100.00
77626;BME280;66794;43.764;10.436;2023-04-15T08:31:59;100791.59;;;12.51;100.00
77626;BME280;66794;43.764;10.436;2023-04-15T08:34:28;100785.22;;;12.58;100.00
77626;BME280;66794;43.764;10.436;2023-04-15T08:36:53;100778.66;;;12.68;100.00
77626;BME280;66794;43.764;10.436;2023-04-15T08:39:18;100783.41;;;12.80;100.00
77626;BME280;66794;43.764;10.436;2023-04-15T08:41:45;100787.66;;;12.68;100.00
77626;BME280;66794;43.764;10.436;2023-04-15T08:44:12;100792.19;;;12.97;100.00
77626;BME280;66794;43.764;10.436;2023-04-15T08:46:38;100787.03;;;13.38;100.00
77626;BME280;66794;43.764;10.436;2023-04-15T08:49:03;100781.84;;;13.44;100.00
77626;BME280;66794;43.764;10.436;2023-04-15T08:51:29;100791.63;;;13.38;100.00
77626;BME280;66794;43.764;10.436;2023-04-15T08:53:55;100795.47;;;13.65;100.00
77626;BME280;66794;43.764;10.436;2023-04-15T08:56:23;100797.38;;;13.71;100.00
77626;BME280;66794;43.764;10.436;2023-04-15T08:58:48;100803.16;;;13.83;100.00
77626;BME280;66794;43.764;10.436;2023-04-15T09:01:15;100800.72;;;13.94;100.00
77626;BME280;66794;43.764;10.436;2023-04-15T09:03:41;100803.66;;;13.93;100.00
77626;BME280;66794;43.764;10.436;2023-04-15T09:06:06;100810.63;;;14.02;100.00
77626;BME280;66794;43.764;10.436;2023-04-15T09:08:32;100816.97;;;13.60;100.00
77626;BME280;66794;43.764;10.436;2023-04-15T09:11:01;100807.19;;;13.65;100.00
77626;BME280;66794;43.764;10.436;2023-04-15T09:13:27;100813.56;;;13.58;100.00
77626;BME280;66794;43.764;10.436;2023-04-15T09:15:52;100797.66;;;13.76;100.00
77626;BME280;66794;43.764;10.436;2023-04-15T09:18:31;100804.00;;;14.11;100.00
77626;BME280;66794;43.764;10.436;2023-04-15T09:21:03;100801.97;;;14.20;100.00
77626;BME280;66794;43.764;10.436;2023-04-15T09:23:29;100808.84;;;14.16;100.00
77626;BME280;66794;43.764;10.436;2023-04-15T09:25:55;100808.41;;;14.12;100.00
77626;BME280;66794;43.764;10.436;2023-04-15T09:28:24;100802.75;;;14.42;100.00
77626;BME280;66794;43.764;10.436;2023-04-15T09:30:59;100802.91;;;14.40;100.00
77626;BME280;66794;43.764;10.436;2023-04-15T09:33:26;100794.69;;;14.27;100.00
77626;BME280;66794;43.764;10.436;2023-04-15T09:38:23;100792.66;;;14.36;100.00
77626;BME280;66794;43.764;10.436;2023-04-15T09:40:48;100797.06;;;14.37;100.00
77626;BME280;66794;43.764;10.436;2023-04-15T09:43:14;100793.38;;;14.92;100.00
77626;BME280;66794;43.764;10.436;2023-04-15T09:45:46;100780.53;;;14.80;100.00
77626;BME280;66794;43.764;10.436;2023-04-15T09:48:15;100779.44;;;15.29;100.00
77626;BME280;66794;43.764;10.436;2023-04-15T09:50:41;100777.34;;;15.24;98.92
77626;BME280;66794;43.764;10.436;2023-04-15T09:53:10;100773.81;;;14.76;98.14
77626;BME280;66794;43.764;10.436;2023-04-15T09:55:38;100772.28;;;14.66;97.04
77626;BME280;66794;43.764;10.436;2023-04-15T09:58:16;100776.38;;;14.90;99.32
77626;BME280;66794;43.764;10.436;2023-04-15T10:00:41;100772.53;;;14.71;97.56
77626;BME280;66794;43.764;10.436;2023-04-15T10:03:07;100767.75;;;14.80;97.33
77626;BME280;66794;43.764;10.436;2023-04-15T10:05:32;100763.41;;;14.99;97.43
77626;BME280;66794;43.764;10.436;2023-04-15T10:07:58;100764.78;;;15.56;100.00
77626;BME280;66794;43.764;10.436;2023-04-15T10:10:24;100755.97;;;16.14;100.00
77626;BME280;66794;43.764;10.436;2023-04-15T10:12:50;100754.44;;;16.44;98.85
77626;BME280;66794;43.764;10.436;2023-04-15T10:15:16;100755.56;;;16.03;96.34
77626;BME280;66794;43.764;10.436;2023-04-15T10:17:43;100761.63;;;15.46;95.27
77626;BME280;66794;43.764;10.436;2023-04-15T10:20:09;100762.25;;;15.41;93.57
77626;BME280;66794;43.764;10.436;2023-04-15T10:22:34;100746.16;;;15.66;95.41
77626;BME280;66794;43.764;10.436;2023-04-15T10:25:00;100745.03;;;15.47;96.56
77626;BME280;66794;43.764;10.436;2023-04-15T10:27:26;100749.00;;;15.32;99.50
77626;BME280;66794;43.764;10.436;2023-04-15T10:29:53;100745.66;;;15.23;96.87
77626;BME280;66794;43.764;10.436;2023-04-15T10:32:18;100742.53;;;15.39;94.73
77626;BME280;66794;43.764;10.436;2023-04-15T10:34:45;100733.91;;;15.49;94.05
77626;BME280;66794;43.764;10.436;2023-04-15T10:37:11;100741.06;;;15.57;92.54
77626;BME280;66794;43.764;10.436;2023-04-15T10:44:30;100735.38;;;16.18;90.92
77626;BME280;66794;43.764;10.436;2023-04-15T10:46:55;100729.75;;;15.66;91.80
77626;BME280;66794;43.764;10.436;2023-04-15T10:49:25;100725.13;;;15.93;93.75
77626;BME280;66794;43.764;10.436;2023-04-15T10:51:51;100714.41;;;15.45;91.48
77626;BME280;66794;43.764;10.436;2023-04-15T10:56:49;100704.06;;;16.07;89.54
77626;BME280;66794;43.764;10.436;2023-04-15T10:59:15;100698.53;;;16.34;89.09
77626;BME280;66794;43.764;10.436;2023-04-15T11:04:49;100694.97;;;16.33;83.96
77626;BME280;66794;43.764;10.436;2023-04-15T11:07:05;100698.63;;;15.87;86.08
77626;BME280;66794;43.764;10.436;2023-04-15T11:09:31;100691.09;;;15.69;84.57
77626;BME280;66794;43.764;10.436;2023-04-15T11:12:07;100688.31;;;16.02;84.79
77626;BME280;66794;43.764;10.436;2023-04-15T11:14:33;100682.19;;;16.20;86.35
77626;BME280;66794;43.764;10.436;2023-04-15T11:17:00;100677.59;;;16.08;83.65
77626;BME280;66794;43.764;10.436;2023-04-15T11:19:25;100684.63;;;16.93;84.87
77626;BME280;66794;43.764;10.436;2023-04-15T11:21:51;100676.00;;;16.96;83.77
77626;BME280;66794;43.764;10.436;2023-04-15T11:24:26;100672.59;;;16.56;81.73
77626;BME280;66794;43.764;10.436;2023-04-15T11:26:56;100669.75;;;16.82;81.80
77626;BME280;66794;43.764;10.436;2023-04-15T11:29:21;100663.97;;;17.29;81.03
77626;BME280;66794;43.764;10.436;2023-04-15T11:31:47;100618.63;;;16.83;80.35
77626;BME280;66794;43.764;10.436;2023-04-15T11:34:19;100663.66;;;16.80;79.25
77626;BME280;66794;43.764;10.436;2023-04-15T11:36:46;100662.34;;;17.46;80.37
77626;BME280;66794;43.764;10.436;2023-04-15T11:39:12;100663.25;;;16.77;80.34
77626;BME280;66794;43.764;10.436;2023-04-15T11:41:40;100664.19;;;16.96;79.20
77626;BME280;66794;43.764;10.436;2023-04-15T11:44:15;100658.06;;;18.00;80.12
77626;BME280;66794;43.764;10.436;2023-04-15T11:46:40;100647.38;;;17.24;72.73
77626;BME280;66794;43.764;10.436;2023-04-15T11:49:05;100658.50;;;17.79;77.54
77626;BME280;66794;43.764;10.436;2023-04-15T11:51:31;100648.66;;;17.21;80.47
77626;BME280;66794;43.764;10.436;2023-04-15T11:53:57;100647.38;;;17.24;79.97
77626;BME280;66794;43.764;10.436;2023-04-15T11:56:23;100640.31;;;18.03;77.48
77626;BME280;66794;43.764;10.436;2023-04-15T11:58:53;100640.47;;;17.90;77.87
77626;BME280;66794;43.764;10.436;2023-04-15T12:01:18;100631.91;;;18.71;78.00
77626;BME280;66794;43.764;10.436;2023-04-15T12:03:47;100631.84;;;18.41;72.39
77626;BME280;66794;43.764;10.436;2023-04-15T12:14:07;100629.06;;;18.78;74.12
77626;BME280;66794;43.764;10.436;2023-04-15T12:17:06;100626.63;;;18.03;77.81
77626;BME280;66794;43.764;10.436;2023-04-15T12:19:29;100630.72;;;18.30;76.02
77626;BME280;66794;43.764;10.436;2023-04-15T12:22:03;100626.06;;;17.76;75.47
77626;BME280;66794;43.764;10.436;2023-04-15T12:24:32;100627.25;;;17.61;75.35
77626;BME280;66794;43.764;10.436;2023-04-15T12:27:05;100622.91;;;17.79;76.92
77626;BME280;66794;43.764;10.436;2023-04-15T12:29:31;100620.59;;;18.31;75.19
77626;BME280;66794;43.764;10.436;2023-04-15T12:32:06;100621.00;;;18.95;76.84
77626;BME280;66794;43.764;10.436;2023-04-15T12:34:36;100612.38;;;18.91;70.84
77626;BME280;66794;43.764;10.436;2023-04-15T12:37:02;100608.22;;;19.65;70.90
77626;BME280;66794;43.764;10.436;2023-04-15T12:39:29;100611.03;;;19.24;68.38
77626;BME280;66794;43.764;10.436;2023-04-15T12:41:55;100606.22;;;19.07;70.90
77626;BME280;66794;43.764;10.436;2023-04-15T12:44:23;100615.22;;;18.84;73.46
77626;BME280;66794;43.764;10.436;2023-04-15T12:46:49;100604.75;;;18.33;76.18
77626;BME280;66794;43.764;10.436;2023-04-15T12:49:14;100606.66;;;18.32;73.89